Portada
METAR-TAF:

METAR-TAF

Aeroports :

Harbin, Xina

latitud: 45-45N, longitud: 126-46E, altitud: 143 m

Observació

L'informe es va fer fa 53 minuts, a les 03:00 UTC
Vent 8 kt del Sud
Temperatura -7°C
Humitat 67%
Pressió 1021 hPa
Visibilitat: 7000 m

METAR: ZYHB 080300Z 18004MPS 7000 NSC M07/M12 Q1021 NOSIG

Hora: 11:53 (03:53 UTC)

Pronòstic

L'informe es va fer fa 8 hores i 40 minuts, a les 19:13 UTC
Pronòstic vàlid del 08 a les 00 UTC al 08 a les 24 UTC
Vent 8 kt del Sud
Visibilitat: 6000 m
Núvols disperses a una alçada de 3000 ft

TAF: ZYHB 071913Z 0800/0824 18004MPS 6000 SCT030 TXM04/06Z TNM14/00Z

Observacions i pronòstics meteorològics de més de 4000 aeroports (METAR i TAF).

Les estacions disponibles són els punts grocs i vermells al mapa.

Posi el ratolí al punt desitjat per veure el nom de l'estació.

Feu clic per veure les observacions i els pronòstics meteorològics.

Per canviar el mapa: feu clic els botons verds amb una creu de color negre per apropar; al botó verd amb un guió per allunyar la imatge; o en les fletxes verdes per a mapes adjacents.


METAR-TAF: